Wetterdaten: aktuell Mittwoch, 17.07.2019 23:15
Datum Zeit Temp. A. Luft Gew. Boden Gew. Boden A. Feuchte A. Luftdruck Regen Wind Richtung Richtung Sonnenschein ET UV Solar Taupunkt Windchill Windben Empfang
17.07.2019 23:15 17.1 C 16.1 C 18.3 C 18.3 C 73 % 1013.2 hPa 0.0 l/m 0.0 km/h (0 Bft) N-NW 346 0 min 0.025 mm 0.0 UV-I 0 W/m 12.2 C 17.1 C 0.0 km/h (0 Bft) 97.50 %
17.07.2019 22:15 18.9 C 18.9 C 18.9 C 18.9 C 67 % 1013.0 hPa 0.0 l/m 0.0 km/h (0 Bft) N-NW 346 0 min 0.000 mm 0.0 UV-I 0 W/m 12.6 C 18.9 C 0.0 km/h (0 Bft) 95.73 %
17.07.2019 21:15 20.7 C 22.2 C 19.4 C 19.4 C 61 % 1012.5 hPa 0.0 l/m 0.1 km/h (0 Bft) N-NW 346 0 min 0.025 mm 0.0 UV-I 5 W/m 12.9 C 20.7 C 1.6 km/h (1 Bft) 96.58 %
17.07.2019 20:15 23.1 C 25.6 C 19.4 C 19.4 C 53 % 1012.2 hPa 0.0 l/m 1.5 km/h (1 Bft) N-NW 346 30 min 0.153 mm 0.0 UV-I 46 W/m 13.0 C 23.1 C 6.4 km/h (2 Bft) 100.00 %
17.07.2019 19:15 24.7 C 30.0 C 19.4 C 20.0 C 46 % 1012.2 hPa 0.0 l/m 1.8 km/h (1 Bft) N-NW 346 60 min 0.279 mm 0.6 UV-I 249 W/m 12.3 C 24.7 C 8.0 km/h (2 Bft) 100.00 %
17.07.2019 18:15 25.8 C 30.0 C 19.4 C 20.6 C 40 % 1012.3 hPa 0.0 l/m 6.9 km/h (2 Bft) N 349 60 min 0.001 mm 1.4 UV-I 421 W/m 11.2 C 25.7 C 19.3 km/h (3 Bft) 100.00 %
17.07.2019 17:15 25.9 C 30.0 C 19.4 C 20.6 C 41 % 1012.7 hPa 0.0 l/m 3.0 km/h (1 Bft) W-SW 252 60 min 0.406 mm 2.2 UV-I 417 W/m 11.6 C 25.9 C 11.3 km/h (2 Bft) 100.00 %
17.07.2019 16:15 27.1 C 30.0 C 19.4 C 21.1 C 41 % 1013.0 hPa 0.0 l/m 9.5 km/h (2 Bft) W-NW 294 60 min 0.432 mm 3.7 UV-I 630 W/m 12.7 C 26.6 C 17.7 km/h (3 Bft) 97.22 %
17.07.2019 15:15 26.3 C 30.0 C 19.4 C 21.1 C 38 % 1013.4 hPa 0.0 l/m 6.2 km/h (2 Bft) W-NW 291 60 min 0.559 mm 3.8 UV-I 467 W/m 10.8 C 26.3 C 14.5 km/h (3 Bft) 95.24 %
17.07.2019 14:15 26.6 C 30.0 C 19.4 C 21.1 C 44 % 1013.6 hPa 0.0 l/m 10.4 km/h (2 Bft) W 270 55 min 0.584 mm 5.8 UV-I 951 W/m 13.3 C 25.9 C 22.5 km/h (4 Bft) 96.30 %
17.07.2019 13:14 26.6 C 28.9 C 18.9 C 21.1 C 43 % 1014.0 hPa 0.0 l/m 10.9 km/h (2 Bft) W 265 59 min 0.482 mm 6.7 UV-I 933 W/m 13.0 C 25.8 C 19.3 km/h (3 Bft) 97.50 %
17.07.2019 12:15 24.9 C 30.0 C 18.9 C 20.6 C 48 % 1014.2 hPa 0.0 l/m 4.6 km/h (1 Bft) W-SW 240 60 min 0.483 mm 5.4 UV-I 768 W/m 13.1 C 24.9 C 11.3 km/h (2 Bft) 96.58 %
17.07.2019 11:15 23.4 C 30.0 C 17.8 C 18.9 C 56 % 1014.7 hPa 0.0 l/m 1.0 km/h (0 Bft) SW 225 60 min 0.381 mm 4.8 UV-I 720 W/m 14.1 C 23.4 C 11.3 km/h (2 Bft) 97.44 %
17.07.2019 10:15 21.5 C 27.8 C 17.2 C 17.8 C 62 % 1015.1 hPa 0.0 l/m 0.0 km/h (0 Bft) N-NO 33 60 min 0.305 mm 3.5 UV-I 631 W/m 13.9 C 21.5 C 0.0 km/h (0 Bft) 96.58 %
17.07.2019 09:15 18.6 C 20.6 C 16.1 C 16.7 C 71 % 1015.1 hPa 0.0 l/m 0.0 km/h (0 Bft) N-NO 26 60 min 0.178 mm 2.1 UV-I 476 W/m 13.2 C 18.6 C 0.0 km/h (0 Bft) 99.07 %
17.07.2019 08:15 15.9 C 17.8 C 16.1 C 16.1 C 82 % 1015.5 hPa 0.0 l/m 0.0 km/h (0 Bft) NW 321 60 min 0.101 mm 1.1 UV-I 305 W/m 12.8 C 15.9 C 0.0 km/h (0 Bft) 100.00 %
17.07.2019 07:15 12.6 C 12.2 C 15.6 C 16.1 C 91 % 1015.7 hPa 0.0 l/m 0.0 km/h (0 Bft) NW 321 0 min 0.026 mm 0.0 UV-I 152 W/m 11.2 C 12.6 C 0.0 km/h (0 Bft) 97.50 %
17.07.2019 06:15 11.1 C 10.0 C 15.6 C 16.1 C 89 % 1015.5 hPa 0.0 l/m 0.0 km/h (0 Bft) NW 321 0 min 0.000 mm 0.0 UV-I 27 W/m 9.4 C 11.1 C 0.0 km/h (0 Bft) 96.58 %
17.07.2019 05:15 11.2 C 10.0 C 16.1 C 16.1 C 88 % 1015.8 hPa 0.0 l/m 0.0 km/h (0 Bft) NW 321 0 min 0.000 mm 0.0 UV-I 0 W/m 9.3 C 11.2 C 0.0 km/h (0 Bft) 95.73 %
17.07.2019 04:15 11.7 C 10.6 C 16.1 C 16.1 C 87 % 1016.1 hPa 0.0 l/m 0.0 km/h (0 Bft) NW 321 0 min 0.000 mm 0.0 UV-I 0 W/m 9.6 C 11.7 C 0.0 km/h (0 Bft) 95.76 %
17.07.2019 03:15 12.1 C 11.1 C 16.7 C 16.7 C 86 % 1016.5 hPa 0.0 l/m 0.0 km/h (0 Bft) NW 321 0 min 0.000 mm 0.0 UV-I 0 W/m 9.8 C 12.1 C 0.0 km/h (0 Bft) 97.44 %
17.07.2019 02:15 12.7 C 11.7 C 16.7 C 16.7 C 84 % 1016.8 hPa 0.0 l/m 0.0 km/h (0 Bft) NW 321 0 min 0.000 mm 0.0 UV-I 0 W/m 10.1 C 12.7 C 0.0 km/h (0 Bft) 96.58 %
17.07.2019 01:15 13.2 C 12.2 C 17.2 C 17.2 C 84 % 1016.9 hPa 0.0 l/m 0.0 km/h (0 Bft) NW 321 0 min 0.025 mm 0.0 UV-I 0 W/m 10.6 C 13.2 C 0.0 km/h (0 Bft) 97.44 %
17.07.2019 00:15 14.0 C 13.3 C 17.2 C 17.8 C 82 % 1016.7 hPa 0.0 l/m 0.0 km/h (0 Bft) NW 321 0 min 0.000 mm 0.0 UV-I 0 W/m 11.0 C 14.0 C 0.0 km/h (0 Bft) 97.50 %
17.07.2019 00:00 14.3 C 13.9 C 17.8 C 17.8 C 81 % 1016.7 hPa 0.0 l/m 0.0 km/h (0 Bft) NW 321 0 min 0.000 mm 0.0 UV-I 0 W/m 11.1 C 14.3 C 0.0 km/h (0 Bft) 94.92 %
_ Min-Zeit 05:45 06:00 05:40 03:55 17:00 18:30 - 00:00 - - - - - - 05:20 05:20 00:00 04:05
Minimum _ 11.0 C 9.4 C 15.6 C 16.1 C 36 % 1012.1 hPa - 0.0 km/h (0 Bft) - - - - - - 9.2 C 11.1 C 0.0 km/h (0 Bft) 93.94 %
_ Max-Zeit 14:00 11:25 17:25 13:10 06:55 01:15 00:00 15:10 - - 13:20 14:00 13:10 13:10 11:50 15:50 15:10 07:30
Maximum _ 27.2 C 30.6 C 20.0 C 21.1 C 91 % 1016.9 hPa 0.0 l/m 12.2 km/h
W-NW (2 Bft)
- - 6 min 0.584 mm 7.0 UV-I 983 W/m 15.1 C 27.0 C 29.0 km/h
W-NW (5 Bft)
100.00 %
Durchschnitt _ 19.4 C 21.3 C 17.8 C 18.5 C 65 % 1014.4 hPa #0.0 l/m 2.2 km/h (1 Bft) W - #12:30 h #4.724 mm 3.3 UV-I 436 W/m 11.9 C 19.4 C 5.5 km/h (1 Bft) 97.82 %